sensor_id;sensor_type;location;lat;lon;timestamp;P1;durP1;ratioP1;P2;durP2;ratioP2
8017;SDS011;4054;52.666;4.770;2023-03-31T00:00:31;87.57;;;62.58;;
8017;SDS011;4054;52.666;4.770;2023-03-31T00:01:04;70.18;;;61.28;;
8017;SDS011;4054;52.666;4.770;2023-03-31T00:01:36;68.82;;;61.13;;
8017;SDS011;4054;52.666;4.770;2023-03-31T00:02:12;78.85;;;61.38;;
8017;SDS011;4054;52.666;4.770;2023-03-31T00:02:45;83.57;;;61.88;;
8017;SDS011;4054;52.666;4.770;2023-03-31T00:03:17;66.95;;;60.00;;
8017;SDS011;4054;52.666;4.770;2023-03-31T00:03:52;76.75;;;60.75;;
8017;SDS011;4054;52.666;4.770;2023-03-31T00:04:32;81.03;;;63.03;;
8017;SDS011;4054;52.666;4.770;2023-03-31T00:05:05;69.05;;;60.95;;
8017;SDS011;4054;52.666;4.770;2023-03-31T00:05:39;68.00;;;60.58;;
8017;SDS011;4054;52.666;4.770;2023-03-31T00:06:18;68.85;;;61.45;;
8017;SDS011;4054;52.666;4.770;2023-03-31T00:06:50;79.57;;;63.53;;
8017;SDS011;4054;52.666;4.770;2023-03-31T00:07:25;68.90;;;60.23;;
8017;SDS011;4054;52.666;4.770;2023-03-31T00:07:57;79.60;;;61.63;;
8017;SDS011;4054;52.666;4.770;2023-03-31T00:08:31;71.13;;;59.78;;
8017;SDS011;4054;52.666;4.770;2023-03-31T00:09:08;80.22;;;61.22;;
8017;SDS011;4054;52.666;4.770;2023-03-31T00:09:42;70.28;;;61.67;;
8017;SDS011;4054;52.666;4.770;2023-03-31T00:10:17;76.53;;;61.72;;
8017;SDS011;4054;52.666;4.770;2023-03-31T00:10:49;76.22;;;61.42;;
8017;SDS011;4054;52.666;4.770;2023-03-31T00:11:22;90.30;;;63.03;;
8017;SDS011;4054;52.666;4.770;2023-03-31T00:11:55;81.25;;;61.17;;
8017;SDS011;4054;52.666;4.770;2023-03-31T00:12:27;83.38;;;62.38;;
8017;SDS011;4054;52.666;4.770;2023-03-31T00:12:59;69.50;;;61.22;;
8017;SDS011;4054;52.666;4.770;2023-03-31T00:13:33;67.93;;;60.63;;
8017;SDS011;4054;52.666;4.770;2023-03-31T00:14:06;79.55;;;60.88;;
8017;SDS011;4054;52.666;4.770;2023-03-31T00:14:39;73.75;;;61.58;;
8017;SDS011;4054;52.666;4.770;2023-03-31T00:15:12;76.63;;;61.80;;
8017;SDS011;4054;52.666;4.770;2023-03-31T00:15:44;73.18;;;60.85;;
8017;SDS011;4054;52.666;4.770;2023-03-31T00:16:16;71.43;;;59.85;;
8017;SDS011;4054;52.666;4.770;2023-03-31T00:16:49;75.25;;;60.63;;
8017;SDS011;4054;52.666;4.770;2023-03-31T00:17:21;69.18;;;60.47;;
8017;SDS011;4054;52.666;4.770;2023-03-31T00:17:53;84.60;;;61.67;;
8017;SDS011;4054;52.666;4.770;2023-03-31T00:18:31;82.25;;;60.90;;
8017;SDS011;4054;52.666;4.770;2023-03-31T00:19:03;74.28;;;61.00;;
8017;SDS011;4054;52.666;4.770;2023-03-31T00:19:40;74.05;;;60.97;;
8017;SDS011;4054;52.666;4.770;2023-03-31T00:20:12;80.32;;;62.03;;
8017;SDS011;4054;52.666;4.770;2023-03-31T00:20:46;69.07;;;61.00;;
8017;SDS011;4054;52.666;4.770;2023-03-31T00:21:19;67.40;;;60.08;;
8017;SDS011;4054;52.666;4.770;2023-03-31T00:21:56;85.50;;;62.00;;
8017;SDS011;4054;52.666;4.770;2023-03-31T00:22:32;80.93;;;60.88;;
8017;SDS011;4054;52.666;4.770;2023-03-31T00:23:04;76.07;;;61.83;;
8017;SDS011;4054;52.666;4.770;2023-03-31T00:23:41;75.43;;;60.75;;
8017;SDS011;4054;52.666;4.770;2023-03-31T00:24:14;73.13;;;60.15;;
8017;SDS011;4054;52.666;4.770;2023-03-31T00:24:46;76.13;;;62.13;;
8017;SDS011;4054;52.666;4.770;2023-03-31T00:25:20;79.85;;;61.78;;
8017;SDS011;4054;52.666;4.770;2023-03-31T00:25:52;73.55;;;62.42;;
8017;SDS011;4054;52.666;4.770;2023-03-31T00:26:24;76.15;;;61.58;;
8017;SDS011;4054;52.666;4.770;2023-03-31T00:26:58;73.03;;;62.22;;
8017;SDS011;4054;52.666;4.770;2023-03-31T00:27:30;80.97;;;60.63;;
8017;SDS011;4054;52.666;4.770;2023-03-31T00:28:02;71.53;;;60.03;;
8017;SDS011;4054;52.666;4.770;2023-03-31T00:28:35;68.38;;;61.10;;
8017;SDS011;4054;52.666;4.770;2023-03-31T00:29:08;70.38;;;63.13;;
8017;SDS011;4054;52.666;4.770;2023-03-31T00:29:42;76.30;;;62.42;;
8017;SDS011;4054;52.666;4.770;2023-03-31T00:30:15;79.47;;;61.30;;
8017;SDS011;4054;52.666;4.770;2023-03-31T00:30:48;89.25;;;64.00;;
8017;SDS011;4054;52.666;4.770;2023-03-31T00:31:21;70.18;;;61.70;;
8017;SDS011;4054;52.666;4.770;2023-03-31T00:31:54;78.97;;;60.88;;
8017;SDS011;4054;52.666;4.770;2023-03-31T00:32:27;74.45;;;61.00;;
8017;SDS011;4054;52.666;4.770;2023-03-31T00:32:59;86.20;;;61.30;;
8017;SDS011;4054;52.666;4.770;2023-03-31T00:33:32;67.82;;;60.30;;
8017;SDS011;4054;52.666;4.770;2023-03-31T00:34:04;85.35;;;62.83;;
8017;SDS011;4054;52.666;4.770;2023-03-31T00:34:37;69.07;;;61.22;;
8017;SDS011;4054;52.666;4.770;2023-03-31T00:35:11;82.97;;;61.92;;
8017;SDS011;4054;52.666;4.770;2023-03-31T00:35:43;74.35;;;60.97;;
8017;SDS011;4054;52.666;4.770;2023-03-31T00:36:17;69.38;;;61.60;;
8017;SDS011;4054;52.666;4.770;2023-03-31T00:36:57;67.25;;;60.08;;
8017;SDS011;4054;52.666;4.770;2023-03-31T00:37:33;75.03;;;61.92;;
8017;SDS011;4054;52.666;4.770;2023-03-31T00:38:06;68.85;;;60.70;;
8017;SDS011;4054;52.666;4.770;2023-03-31T00:38:39;80.43;;;60.97;;
8017;SDS011;4054;52.666;4.770;2023-03-31T00:39:17;80.88;;;61.05;;
8017;SDS011;4054;52.666;4.770;2023-03-31T00:39:50;68.72;;;61.35;;
8017;SDS011;4054;52.666;4.770;2023-03-31T00:40:22;79.00;;;61.13;;
8017;SDS011;4054;52.666;4.770;2023-03-31T00:40:55;73.90;;;61.30;;
8017;SDS011;4054;52.666;4.770;2023-03-31T00:41:27;72.35;;;61.70;;
8017;SDS011;4054;52.666;4.770;2023-03-31T00:42:01;74.88;;;61.83;;
8017;SDS011;4054;52.666;4.770;2023-03-31T00:42:38;85.20;;;60.88;;
8017;SDS011;4054;52.666;4.770;2023-03-31T00:43:24;81.82;;;62.05;;
8017;SDS011;4054;52.666;4.770;2023-03-31T00:44:07;85.57;;;63.28;;
8017;SDS011;4054;52.666;4.770;2023-03-31T00:45:53;75.38;;;62.95;;
8017;SDS011;4054;52.666;4.770;2023-03-31T00:46:29;74.90;;;60.72;;
8017;SDS011;4054;52.666;4.770;2023-03-31T00:47:05;82.68;;;60.90;;
8017;SDS011;4054;52.666;4.770;2023-03-31T00:47:44;81.07;;;61.72;;
8017;SDS011;4054;52.666;4.770;2023-03-31T00:48:19;77.60;;;61.20;;
8017;SDS011;4054;52.666;4.770;2023-03-31T00:48:52;75.95;;;61.50;;
8017;SDS011;4054;52.666;4.770;2023-03-31T00:49:30;78.28;;;62.35;;
8017;SDS011;4054;52.666;4.770;2023-03-31T00:50:05;77.15;;;61.55;;
8017;SDS011;4054;52.666;4.770;2023-03-31T00:50:47;83.45;;;60.90;;
8017;SDS011;4054;52.666;4.770;2023-03-31T00:51:25;74.45;;;62.03;;
8017;SDS011;4054;52.666;4.770;2023-03-31T00:52:00;77.50;;;60.38;;
8017;SDS011;4054;52.666;4.770;2023-03-31T00:52:36;83.63;;;61.55;;
8017;SDS011;4054;52.666;4.770;2023-03-31T00:53:09;72.82;;;61.60;;
8017;SDS011;4054;52.666;4.770;2023-03-31T00:53:45;74.53;;;61.35;;
8017;SDS011;4054;52.666;4.770;2023-03-31T00:54:25;66.85;;;60.15;;
8017;SDS011;4054;52.666;4.770;2023-03-31T00:55:00;67.50;;;60.22;;
8017;SDS011;4054;52.666;4.770;2023-03-31T00:55:37;69.43;;;61.72;;
8017;SDS011;4054;52.666;4.770;2023-03-31T00:56:12;66.07;;;59.45;;
8017;SDS011;4054;52.666;4.770;2023-03-31T00:56:46;69.15;;;59.90;;
8017;SDS011;4054;52.666;4.770;2023-03-31T00:57:20;81.18;;;61.75;;
8017;SDS011;4054;52.666;4.770;2023-03-31T00:57:56;73.63;;;61.00;;
8017;SDS011;4054;52.666;4.770;2023-03-31T00:58:29;74.38;;;60.42;;
8017;SDS011;4054;52.666;4.770;2023-03-31T00:59:05;72.50;;;61.28;;
8017;SDS011;4054;52.666;4.770;2023-03-31T00:59:39;71.47;;;61.45;;
8017;SDS011;4054;52.666;4.770;2023-03-31T01:00:17;68.85;;;61.05;;
8017;SDS011;4054;52.666;4.770;2023-03-31T01:00:50;73.95;;;61.33;;
8017;SDS011;4054;52.666;4.770;2023-03-31T01:01:23;75.47;;;61.42;;
8017;SDS011;4054;52.666;4.770;2023-03-31T01:01:57;77.72;;;60.40;;
8017;SDS011;4054;52.666;4.770;2023-03-31T01:02:33;73.22;;;61.47;;
8017;SDS011;4054;52.666;4.770;2023-03-31T01:03:12;74.13;;;60.35;;
8017;SDS011;4054;52.666;4.770;2023-03-31T01:03:46;68.28;;;60.95;;
8017;SDS011;4054;52.666;4.770;2023-03-31T01:04:18;74.43;;;59.58;;
8017;SDS011;4054;52.666;4.770;2023-03-31T01:04:53;74.95;;;61.03;;
8017;SDS011;4054;52.666;4.770;2023-03-31T01:05:30;77.28;;;60.63;;
8017;SDS011;4054;52.666;4.770;2023-03-31T01:06:05;89.30;;;61.50;;
8017;SDS011;4054;52.666;4.770;2023-03-31T01:06:45;71.65;;;59.47;;
8017;SDS011;4054;52.666;4.770;2023-03-31T01:07:24;74.03;;;59.92;;
8017;SDS011;4054;52.666;4.770;2023-03-31T01:08:00;80.20;;;61.13;;
8017;SDS011;4054;52.666;4.770;2023-03-31T01:08:36;75.10;;;60.55;;
8017;SDS011;4054;52.666;4.770;2023-03-31T01:09:10;67.35;;;59.95;;
8017;SDS011;4054;52.666;4.770;2023-03-31T01:09:42;72.25;;;60.10;;
8017;SDS011;4054;52.666;4.770;2023-03-31T01:10:18;75.40;;;61.03;;
8017;SDS011;4054;52.666;4.770;2023-03-31T01:10:52;68.35;;;61.13;;
8017;SDS011;4054;52.666;4.770;2023-03-31T01:11:26;68.25;;;60.05;;
8017;SDS011;4054;52.666;4.770;2023-03-31T01:12:01;67.70;;;60.20;;
8017;SDS011;4054;52.666;4.770;2023-03-31T01:12:36;81.00;;;60.20;;
8017;SDS011;4054;52.666;4.770;2023-03-31T01:13:10;68.70;;;60.47;;
8017;SDS011;4054;52.666;4.770;2023-03-31T01:13:45;69.53;;;59.80;;
8017;SDS011;4054;52.666;4.770;2023-03-31T01:14:21;72.43;;;61.05;;
8017;SDS011;4054;52.666;4.770;2023-03-31T01:14:53;73.57;;;60.67;;
8017;SDS011;4054;52.666;4.770;2023-03-31T01:15:26;83.97;;;61.88;;
8017;SDS011;4054;52.666;4.770;2023-03-31T01:15:58;90.13;;;62.05;;
8017;SDS011;4054;52.666;4.770;2023-03-31T01:16:31;79.32;;;60.85;;
8017;SDS011;4054;52.666;4.770;2023-03-31T01:17:04;71.33;;;60.53;;
8017;SDS011;4054;52.666;4.770;2023-03-31T01:17:40;73.88;;;61.00;;
8017;SDS011;4054;52.666;4.770;2023-03-31T01:18:15;76.50;;;60.40;;
8017;SDS011;4054;52.666;4.770;2023-03-31T01:18:51;66.30;;;59.47;;
8017;SDS011;4054;52.666;4.770;2023-03-31T01:19:30;66.78;;;59.72;;
8017;SDS011;4054;52.666;4.770;2023-03-31T01:20:12;71.15;;;59.72;;
8017;SDS011;4054;52.666;4.770;2023-03-31T01:20:54;67.28;;;60.15;;
8017;SDS011;4054;52.666;4.770;2023-03-31T01:24:21;67.03;;;59.80;;
8017;SDS011;4054;52.666;4.770;2023-03-31T01:25:14;71.53;;;60.40;;
8017;SDS011;4054;52.666;4.770;2023-03-31T01:26:11;68.38;;;60.72;;
8017;SDS011;4054;52.666;4.770;2023-03-31T01:27:16;79.97;;;62.30;;
8017;SDS011;4054;52.666;4.770;2023-03-31T01:28:03;70.90;;;61.38;;
8017;SDS011;4054;52.666;4.770;2023-03-31T01:28:41;66.90;;;59.75;;
8017;SDS011;4054;52.666;4.770;2023-03-31T01:30:36;67.07;;;59.85;;
8017;SDS011;4054;52.666;4.770;2023-03-31T01:31:39;74.97;;;60.30;;
8017;SDS011;4054;52.666;4.770;2023-03-31T01:32:36;68.95;;;60.83;;
8017;SDS011;4054;52.666;4.770;2023-03-31T01:33:51;72.40;;;60.70;;
8017;SDS011;4054;52.666;4.770;2023-03-31T01:34:45;72.78;;;59.58;;
8017;SDS011;4054;52.666;4.770;2023-03-31T01:35:39;66.47;;;59.53;;
8017;SDS011;4054;52.666;4.770;2023-03-31T01:36:34;67.13;;;59.72;;
8017;SDS011;4054;52.666;4.770;2023-03-31T01:37:29;73.75;;;60.10;;
8017;SDS011;4054;52.666;4.770;2023-03-31T01:40:49;66.55;;;59.97;;
8017;SDS011;4054;52.666;4.770;2023-03-31T01:41:32;69.15;;;59.13;;
8017;SDS011;4054;52.666;4.770;2023-03-31T01:42:12;76.85;;;61.38;;
8017;SDS011;4054;52.666;4.770;2023-03-31T01:42:48;66.40;;;59.92;;
8017;SDS011;4054;52.666;4.770;2023-03-31T01:43:27;76.20;;;60.28;;
8017;SDS011;4054;52.666;4.770;2023-03-31T01:44:06;68.15;;;61.17;;
8017;SDS011;4054;52.666;4.770;2023-03-31T01:44:42;64.93;;;58.80;;
8017;SDS011;4054;52.666;4.770;2023-03-31T01:45:20;66.28;;;59.53;;
8017;SDS011;4054;52.666;4.770;2023-03-31T01:45:59;68.20;;;60.72;;
8017;SDS011;4054;52.666;4.770;2023-03-31T01:46:39;68.75;;;61.08;;
8017;SDS011;4054;52.666;4.770;2023-03-31T01:47:18;66.35;;;59.72;;
8017;SDS011;4054;52.666;4.770;2023-03-31T01:47:56;66.13;;;59.58;;
8017;SDS011;4054;52.666;4.770;2023-03-31T01:48:36;67.95;;;60.95;;
8017;SDS011;4054;52.666;4.770;2023-03-31T01:49:19;66.77;;;59.53;;
8017;SDS011;4054;52.666;4.770;2023-03-31T01:49:56;66.38;;;59.92;;
8017;SDS011;4054;52.666;4.770;2023-03-31T01:50:34;66.22;;;59.30;;
8017;SDS011;4054;52.666;4.770;2023-03-31T01:51:12;68.15;;;60.13;;
8017;SDS011;4054;52.666;4.770;2023-03-31T01:51:48;70.60;;;59.35;;
8017;SDS011;4054;52.666;4.770;2023-03-31T01:52:30;66.85;;;59.70;;
8017;SDS011;4054;52.666;4.770;2023-03-31T01:53:10;72.03;;;61.90;;
8017;SDS011;4054;52.666;4.770;2023-03-31T01:53:48;66.80;;;60.13;;
8017;SDS011;4054;52.666;4.770;2023-03-31T01:54:25;69.30;;;61.15;;
8017;SDS011;4054;52.666;4.770;2023-03-31T01:55:05;65.93;;;59.33;;
8017;SDS011;4054;52.666;4.770;2023-03-31T01:55:45;72.05;;;60.78;;
8017;SDS011;4054;52.666;4.770;2023-03-31T01:56:24;66.95;;;60.45;;
8017;SDS011;4054;52.666;4.770;2023-03-31T01:57:02;65.72;;;59.15;;
8017;SDS011;4054;52.666;4.770;2023-03-31T01:57:44;67.63;;;60.50;;
8017;SDS011;4054;52.666;4.770;2023-03-31T01:58:20;67.45;;;60.00;;
8017;SDS011;4054;52.666;4.770;2023-03-31T01:58:57;66.83;;;60.57;;
8017;SDS011;4054;52.666;4.770;2023-03-31T01:59:33;68.60;;;60.47;;
8017;SDS011;4054;52.666;4.770;2023-03-31T02:00:11;66.97;;;60.03;;
8017;SDS011;4054;52.666;4.770;2023-03-31T02:00:48;66.35;;;59.83;;
8017;SDS011;4054;52.666;4.770;2023-03-31T02:01:28;66.40;;;59.70;;
8017;SDS011;4054;52.666;4.770;2023-03-31T02:02:07;66.75;;;59.70;;
8017;SDS011;4054;52.666;4.770;2023-03-31T02:02:44;70.15;;;60.20;;
8017;SDS011;4054;52.666;4.770;2023-03-31T02:03:21;68.32;;;61.13;;
8017;SDS011;4054;52.666;4.770;2023-03-31T02:04:00;66.47;;;59.33;;
8017;SDS011;4054;52.666;4.770;2023-03-31T02:04:37;71.30;;;62.33;;
8017;SDS011;4054;52.666;4.770;2023-03-31T02:05:13;67.18;;;59.88;;
8017;SDS011;4054;52.666;4.770;2023-03-31T02:05:50;68.68;;;61.35;;
8017;SDS011;4054;52.666;4.770;2023-03-31T02:06:26;70.38;;;60.83;;
8017;SDS011;4054;52.666;4.770;2023-03-31T02:07:03;65.55;;;59.28;;
8017;SDS011;4054;52.666;4.770;2023-03-31T02:07:40;67.20;;;60.08;;
8017;SDS011;4054;52.666;4.770;2023-03-31T02:08:15;66.45;;;59.85;;
8017;SDS011;4054;52.666;4.770;2023-03-31T02:08:53;67.30;;;60.28;;
8017;SDS011;4054;52.666;4.770;2023-03-31T02:09:30;67.22;;;60.55;;
8017;SDS011;4054;52.666;4.770;2023-03-31T02:10:06;72.32;;;60.50;;
8017;SDS011;4054;52.666;4.770;2023-03-31T02:10:42;68.57;;;61.15;;
8017;SDS011;4054;52.666;4.770;2023-03-31T02:11:17;68.07;;;60.95;;
8017;SDS011;4054;52.666;4.770;2023-03-31T02:11:50;68.90;;;60.60;;
8017;SDS011;4054;52.666;4.770;2023-03-31T02:12:24;66.30;;;59.95;;
8017;SDS011;4054;52.666;4.770;2023-03-31T02:12:59;67.43;;;59.90;;
8017;SDS011;4054;52.666;4.770;2023-03-31T02:13:32;69.35;;;61.03;;
8017;SDS011;4054;52.666;4.770;2023-03-31T02:14:08;67.10;;;60.40;;
8017;SDS011;4054;52.666;4.770;2023-03-31T02:14:44;67.30;;;60.05;;
8017;SDS011;4054;52.666;4.770;2023-03-31T02:15:18;68.18;;;61.13;;
8017;SDS011;4054;52.666;4.770;2023-03-31T02:15:53;64.85;;;58.85;;
8017;SDS011;4054;52.666;4.770;2023-03-31T02:16:32;67.60;;;60.42;;
8017;SDS011;4054;52.666;4.770;2023-03-31T02:17:09;65.53;;;59.42;;
8017;SDS011;4054;52.666;4.770;2023-03-31T02:18:01;67.35;;;60.35;;
8017;SDS011;4054;52.666;4.770;2023-03-31T02:18:36;71.70;;;61.17;;
8017;SDS011;4054;52.666;4.770;2023-03-31T02:19:13;66.97;;;59.85;;
8017;SDS011;4054;52.666;4.770;2023-03-31T02:19:49;66.80;;;60.17;;
8017;SDS011;4054;52.666;4.770;2023-03-31T02:20:25;67.93;;;61.15;;
8017;SDS011;4054;52.666;4.770;2023-03-31T02:20:59;70.85;;;61.00;;
8017;SDS011;4054;52.666;4.770;2023-03-31T02:21:32;67.20;;;59.92;;
8017;SDS011;4054;52.666;4.770;2023-03-31T02:22:08;66.20;;;59.67;;
8017;SDS011;4054;52.666;4.770;2023-03-31T02:22:44;67.18;;;60.60;;
8017;SDS011;4054;52.666;4.770;2023-03-31T02:23:19;66.97;;;59.97;;
8017;SDS011;4054;52.666;4.770;2023-03-31T02:23:57;67.47;;;60.35;;
8017;SDS011;4054;52.666;4.770;2023-03-31T02:24:30;66.25;;;59.72;;
8017;SDS011;4054;52.666;4.770;2023-03-31T02:25:05;66.45;;;60.15;;
8017;SDS011;4054;52.666;4.770;2023-03-31T02:25:43;67.72;;;60.25;;
8017;SDS011;4054;52.666;4.770;2023-03-31T02:26:20;66.68;;;60.22;;
8017;SDS011;4054;52.666;4.770;2023-03-31T02:26:58;67.88;;;60.60;;
8017;SDS011;4054;52.666;4.770;2023-03-31T02:27:37;67.90;;;61.05;;
8017;SDS011;4054;52.666;4.770;2023-03-31T02:28:13;66.88;;;60.40;;
8017;SDS011;4054;52.666;4.770;2023-03-31T02:28:51;67.10;;;60.50;;
8017;SDS011;4054;52.666;4.770;2023-03-31T02:29:24;66.35;;;60.08;;
8017;SDS011;4054;52.666;4.770;2023-03-31T02:29:56;66.60;;;60.08;;
8017;SDS011;4054;52.666;4.770;2023-03-31T02:30:30;66.33;;;60.00;;
8017;SDS011;4054;52.666;4.770;2023-03-31T02:31:12;65.15;;;59.33;;
8017;SDS011;4054;52.666;4.770;2023-03-31T02:32:01;66.60;;;60.42;;
8017;SDS011;4054;52.666;4.770;2023-03-31T02:32:39;65.05;;;59.40;;
8017;SDS011;4054;52.666;4.770;2023-03-31T02:33:13;66.78;;;59.80;;
8017;SDS011;4054;52.666;4.770;2023-03-31T02:33:47;65.30;;;58.88;;
8017;SDS011;4054;52.666;4.770;2023-03-31T02:34:20;65.93;;;60.17;;
8017;SDS011;4054;52.666;4.770;2023-03-31T02:34:53;65.80;;;59.25;;
8017;SDS011;4054;52.666;4.770;2023-03-31T02:35:26;65.20;;;59.30;;
8017;SDS011;4054;52.666;4.770;2023-03-31T02:36:00;64.85;;;59.08;;
8017;SDS011;4054;52.666;4.770;2023-03-31T02:36:33;65.03;;;59.67;;
8017;SDS011;4054;52.666;4.770;2023-03-31T02:37:06;66.32;;;60.13;;
8017;SDS011;4054;52.666;4.770;2023-03-31T02:37:39;66.05;;;59.80;;
8017;SDS011;4054;52.666;4.770;2023-03-31T02:38:12;65.35;;;59.60;;
8017;SDS011;4054;52.666;4.770;2023-03-31T02:38:45;65.05;;;59.35;;
8017;SDS011;4054;52.666;4.770;2023-03-31T02:39:23;65.75;;;59.65;;
8017;SDS011;4054;52.666;4.770;2023-03-31T02:39:59;64.40;;;58.75;;
8017;SDS011;4054;52.666;4.770;2023-03-31T02:40:35;65.60;;;59.55;;
8017;SDS011;4054;52.666;4.770;2023-03-31T02:41:09;67.32;;;60.50;;
8017;SDS011;4054;52.666;4.770;2023-03-31T02:41:42;66.47;;;59.95;;
8017;SDS011;4054;52.666;4.770;2023-03-31T02:42:14;67.70;;;61.22;;
8017;SDS011;4054;52.666;4.770;2023-03-31T02:42:47;67.05;;;60.90;;
8017;SDS011;4054;52.666;4.770;2023-03-31T02:43:20;69.20;;;61.83;;
8017;SDS011;4054;52.666;4.770;2023-03-31T02:43:52;67.93;;;61.20;;
8017;SDS011;4054;52.666;4.770;2023-03-31T02:44:27;68.70;;;61.50;;
8017;SDS011;4054;52.666;4.770;2023-03-31T02:45:00;68.53;;;62.13;;
8017;SDS011;4054;52.666;4.770;2023-03-31T02:45:36;68.95;;;61.53;;
8017;SDS011;4054;52.666;4.770;2023-03-31T02:46:13;69.68;;;62.35;;
8017;SDS011;4054;52.666;4.770;2023-03-31T02:46:45;68.47;;;62.00;;
8017;SDS011;4054;52.666;4.770;2023-03-31T02:47:18;70.38;;;63.25;;
8017;SDS011;4054;52.666;4.770;2023-03-31T02:47:53;70.25;;;62.97;;
8017;SDS011;4054;52.666;4.770;2023-03-31T02:48:26;71.10;;;63.45;;
8017;SDS011;4054;52.666;4.770;2023-03-31T02:49:00;69.25;;;62.28;;
8017;SDS011;4054;52.666;4.770;2023-03-31T02:49:37;69.05;;;62.38;;
8017;SDS011;4054;52.666;4.770;2023-03-31T02:50:12;69.68;;;62.70;;
8017;SDS011;4054;52.666;4.770;2023-03-31T02:50:50;69.35;;;62.70;;
8017;SDS011;4054;52.666;4.770;2023-03-31T02:52:54;70.13;;;62.78;;
8017;SDS011;4054;52.666;4.770;2023-03-31T02:53:37;70.03;;;62.75;;
8017;SDS011;4054;52.666;4.770;2023-03-31T02:55:24;69.50;;;62.35;;
8017;SDS011;4054;52.666;4.770;2023-03-31T02:56:23;69.68;;;62.60;;
8017;SDS011;4054;52.666;4.770;2023-03-31T02:57:14;70.07;;;62.70;;
8017;SDS011;4054;52.666;4.770;2023-03-31T02:59:02;71.30;;;63.65;;
8017;SDS011;4054;52.666;4.770;2023-03-31T02:59:47;69.35;;;62.47;;
8017;SDS011;4054;52.666;4.770;2023-03-31T03:00:28;71.30;;;63.40;;
8017;SDS011;4054;52.666;4.770;2023-03-31T03:01:15;69.78;;;62.72;;
8017;SDS011;4054;52.666;4.770;2023-03-31T03:02:05;69.30;;;62.10;;
8017;SDS011;4054;52.666;4.770;2023-03-31T03:02:47;69.85;;;62.25;;
8017;SDS011;4054;52.666;4.770;2023-03-31T03:03:36;69.13;;;62.22;;
8017;SDS011;4054;52.666;4.770;2023-03-31T03:04:19;67.60;;;61.25;;
8017;SDS011;4054;52.666;4.770;2023-03-31T03:06:20;68.78;;;61.75;;
8017;SDS011;4054;52.666;4.770;2023-03-31T03:07:06;68.53;;;61.55;;
8017;SDS011;4054;52.666;4.770;2023-03-31T03:07:45;68.60;;;61.45;;
8017;SDS011;4054;52.666;4.770;2023-03-31T03:08:26;70.03;;;62.40;;
8017;SDS011;4054;52.666;4.770;2023-03-31T03:09:05;70.57;;;63.00;;
8017;SDS011;4054;52.666;4.770;2023-03-31T03:09:47;68.72;;;61.90;;
8017;SDS011;4054;52.666;4.770;2023-03-31T03:10:31;69.97;;;62.50;;
8017;SDS011;4054;52.666;4.770;2023-03-31T03:11:11;68.63;;;61.50;;
8017;SDS011;4054;52.666;4.770;2023-03-31T03:11:55;69.32;;;62.47;;
8017;SDS011;4054;52.666;4.770;2023-03-31T03:12:37;69.70;;;62.17;;
8017;SDS011;4054;52.666;4.770;2023-03-31T03:13:16;68.75;;;61.50;;
8017;SDS011;4054;52.666;4.770;2023-03-31T03:13:51;68.00;;;61.22;;
8017;SDS011;4054;52.666;4.770;2023-03-31T03:14:30;69.85;;;62.10;;
8017;SDS011;4054;52.666;4.770;2023-03-31T03:15:10;68.53;;;61.70;;
8017;SDS011;4054;52.666;4.770;2023-03-31T03:15:46;68.75;;;61.83;;
8017;SDS011;4054;52.666;4.770;2023-03-31T03:16:21;67.50;;;61.05;;
8017;SDS011;4054;52.666;4.770;2023-03-31T03:16:58;67.95;;;61.45;;
8017;SDS011;4054;52.666;4.770;2023-03-31T03:17:35;69.53;;;62.55;;
8017;SDS011;4054;52.666;4.770;2023-03-31T03:18:10;68.93;;;62.22;;
8017;SDS011;4054;52.666;4.770;2023-03-31T03:18:43;69.68;;;62.10;;
8017;SDS011;4054;52.666;4.770;2023-03-31T03:19:17;69.28;;;61.92;;
8017;SDS011;4054;52.666;4.770;2023-03-31T03:19:52;68.18;;;61.45;;
8017;SDS011;4054;52.666;4.770;2023-03-31T03:20:25;70.28;;;62.75;;
8017;SDS011;4054;52.666;4.770;2023-03-31T03:20:58;70.00;;;62.17;;
8017;SDS011;4054;52.666;4.770;2023-03-31T03:21:30;72.88;;;62.92;;
8017;SDS011;4054;52.666;4.770;2023-03-31T03:22:02;70.65;;;62.22;;
8017;SDS011;4054;52.666;4.770;2023-03-31T03:22:39;69.53;;;62.65;;
8017;SDS011;4054;52.666;4.770;2023-03-31T03:23:11;70.82;;;63.08;;
8017;SDS011;4054;52.666;4.770;2023-03-31T03:23:43;69.30;;;62.40;;
8017;SDS011;4054;52.666;4.770;2023-03-31T03:24:16;69.07;;;61.75;;
8017;SDS011;4054;52.666;4.770;2023-03-31T03:24:48;69.72;;;62.13;;
8017;SDS011;4054;52.666;4.770;2023-03-31T03:25:21;67.93;;;61.58;;
8017;SDS011;4054;52.666;4.770;2023-03-31T03:25:54;70.18;;;63.38;;
8017;SDS011;4054;52.666;4.770;2023-03-31T03:26:26;69.60;;;62.30;;
8017;SDS011;4054;52.666;4.770;2023-03-31T03:27:00;70.50;;;63.13;;
8017;SDS011;4054;52.666;4.770;2023-03-31T03:27:32;68.53;;;61.90;;
8017;SDS011;4054;52.666;4.770;2023-03-31T03:28:06;69.78;;;62.85;;
8017;SDS011;4054;52.666;4.770;2023-03-31T03:28:38;68.53;;;61.78;;
8017;SDS011;4054;52.666;4.770;2023-03-31T03:29:10;69.47;;;62.58;;
8017;SDS011;4054;52.666;4.770;2023-03-31T03:29:45;69.47;;;62.72;;
8017;SDS011;4054;52.666;4.770;2023-03-31T03:30:17;70.72;;;62.35;;
8017;SDS011;4054;52.666;4.770;2023-03-31T03:30:50;69.47;;;62.55;;
8017;SDS011;4054;52.666;4.770;2023-03-31T03:31:23;69.70;;;62.30;;
8017;SDS011;4054;52.666;4.770;2023-03-31T03:31:56;70.00;;;62.60;;
8017;SDS011;4054;52.666;4.770;2023-03-31T03:32:28;69.85;;;62.85;;
8017;SDS011;4054;52.666;4.770;2023-03-31T03:33:02;69.97;;;62.85;;
8017;SDS011;4054;52.666;4.770;2023-03-31T03:33:36;69.78;;;62.90;;
8017;SDS011;4054;52.666;4.770;2023-03-31T03:34:09;70.85;;;63.38;;
8017;SDS011;4054;52.666;4.770;2023-03-31T03:34:42;71.45;;;64.20;;
8017;SDS011;4054;52.666;4.770;2023-03-31T03:35:14;70.10;;;62.90;;
8017;SDS011;4054;52.666;4.770;2023-03-31T03:35:46;70.28;;;62.85;;
8017;SDS011;4054;52.666;4.770;2023-03-31T03:36:19;69.03;;;62.47;;
8017;SDS011;4054;52.666;4.770;2023-03-31T03:36:54;71.80;;;64.05;;
8017;SDS011;4054;52.666;4.770;2023-03-31T03:37:26;70.47;;;62.88;;
8017;SDS011;4054;52.666;4.770;2023-03-31T03:38:00;70.00;;;62.88;;
8017;SDS011;4054;52.666;4.770;2023-03-31T03:38:32;68.63;;;61.75;;
8017;SDS011;4054;52.666;4.770;2023-03-31T03:39:05;69.53;;;62.25;;
8017;SDS011;4054;52.666;4.770;2023-03-31T03:39:38;67.50;;;61.25;;
8017;SDS011;4054;52.666;4.770;2023-03-31T03:40:10;69.72;;;62.55;;
8017;SDS011;4054;52.666;4.770;2023-03-31T03:40:43;69.65;;;62.40;;
8017;SDS011;4054;52.666;4.770;2023-03-31T03:41:17;68.50;;;61.70;;
8017;SDS011;4054;52.666;4.770;2023-03-31T03:41:49;67.70;;;61.42;;
8017;SDS011;4054;52.666;4.770;2023-03-31T03:42:23;68.20;;;61.45;;
8017;SDS011;4054;52.666;4.770;2023-03-31T03:42:56;68.00;;;61.55;;
8017;SDS011;4054;52.666;4.770;2023-03-31T03:43:28;68.38;;;61.75;;
8017;SDS011;4054;52.666;4.770;2023-03-31T03:44:00;67.80;;;61.17;;
8017;SDS011;4054;52.666;4.770;2023-03-31T03:44:33;69.07;;;62.22;;
8017;SDS011;4054;52.666;4.770;2023-03-31T03:45:06;67.97;;;61.63;;
8017;SDS011;4054;52.666;4.770;2023-03-31T03:45:38;69.47;;;62.10;;
8017;SDS011;4054;52.666;4.770;2023-03-31T03:46:11;68.57;;;61.90;;
8017;SDS011;4054;52.666;4.770;2023-03-31T03:46:43;68.80;;;61.80;;
8017;SDS011;4054;52.666;4.770;2023-03-31T03:47:16;70.05;;;63.00;;
8017;SDS011;4054;52.666;4.770;2023-03-31T03:47:49;68.78;;;62.03;;
8017;SDS011;4054;52.666;4.770;2023-03-31T03:48:21;68.32;;;61.95;;
8017;SDS011;4054;52.666;4.770;2023-03-31T03:48:53;70.03;;;63.13;;
8017;SDS011;4054;52.666;4.770;2023-03-31T03:49:26;68.47;;;61.58;;
8017;SDS011;4054;52.666;4.770;2023-03-31T03:49:58;69.20;;;61.90;;
8017;SDS011;4054;52.666;4.770;2023-03-31T03:50:30;67.88;;;61.75;;
8017;SDS011;4054;52.666;4.770;2023-03-31T03:51:06;68.38;;;62.40;;
8017;SDS011;4054;52.666;4.770;2023-03-31T03:51:38;68.28;;;62.00;;
8017;SDS011;4054;52.666;4.770;2023-03-31T03:52:10;69.75;;;62.72;;